Time;durP1;ratioP1;P1;durP2;ratioP2;P2;SDS_P1;SDS_P2;PMS_P1;PMS_P2;Temp;Humidity;BMP_temperature;BMP_pressure;BME280_temperature;BME280_humidity;BME280_pressure;Samples;Min_cycle;Max_cycle;Signal;HPM_P1;HPM_P2
2022/05/22 00:02:13;;;;;;;3.70;1.90;;;;;;;16.15;66.69;100553.63;105367;1271;63175;-71
2022/05/22 00:04:42;;;;;;;8.00;2.10;;;;;;;16.06;69.20;100545.18;105277;1272;60265;-68
2022/05/22 00:07:11;;;;;;;4.00;2.00;;;;;;;16.01;71.32;100544.77;105204;1272;74246;-70
2022/05/22 00:09:40;;;;;;;5.70;2.30;;;;;;;16.00;71.00;100548.77;105257;1272;70780;-69
2022/05/22 00:12:11;;;;;;;4.50;2.00;;;;;;;16.00;69.59;100542.42;105227;1271;69158;-69
2022/05/22 00:14:40;;;;;;;4.50;2.30;;;;;;;15.99;69.52;100536.58;105253;1271;71167;-71
2022/05/22 00:17:09;;;;;;;6.20;2.40;;;;;;;16.00;72.02;100534.71;105194;1271;61268;-67
2022/05/22 00:19:39;;;;;;;5.60;2.50;;;;;;;15.98;73.53;100527.19;105248;1271;59533;-68
2022/05/22 00:22:08;;;;;;;8.50;2.00;;;;;;;16.00;72.47;100522.95;105356;1271;73762;-69
2022/05/22 00:24:37;;;;;;;7.30;2.10;;;;;;;15.99;73.35;100530.05;105433;1271;71031;-70
2022/05/22 00:27:07;;;;;;;8.50;2.20;;;;;;;15.94;73.70;100533.66;105314;1271;70597;-67
2022/05/22 00:29:37;;;;;;;8.40;3.40;;;;;;;15.97;71.01;100537.91;105387;1271;72945;-69
2022/05/22 00:32:07;;;;;;;9.20;3.50;;;;;;;15.93;70.05;100528.13;105370;1271;62080;-70
2022/05/22 00:34:38;;;;;;;6.40;3.60;;;;;;;15.86;71.81;100522.13;105305;1273;59499;-68
2022/05/22 00:37:06;;;;;;;9.70;3.20;;;;;;;15.83;72.68;100521.90;105401;1271;73702;-67
2022/05/22 00:39:36;;;;;;;5.40;3.10;;;;;;;15.85;71.94;100520.20;105337;1271;71789;-70
2022/05/22 00:42:19;;;;;;;4.60;2.40;;;;;;;15.84;69.82;100509.31;105308;1271;71991;-70
2022/05/22 00:44:48;;;;;;;4.30;2.10;;;;;;;15.80;69.07;100507.35;105359;1271;72356;-71
2022/05/22 00:47:17;;;;;;;8.00;2.30;;;;;;;15.76;68.88;100511.42;105439;1271;62939;-71
2022/05/22 00:49:47;;;;;;;4.30;2.30;;;;;;;15.72;70.91;100518.33;105374;1273;59385;-75
2022/05/22 00:52:33;;;;;;;7.60;2.50;;;;;;;15.74;69.47;100513.88;105426;1272;71061;-70
2022/05/22 00:55:20;;;;;;;5.60;2.50;;;;;;;15.73;69.91;100510.48;105470;1271;72041;-72
2022/05/22 00:58:04;;;;;;;6.20;2.30;;;;;;;15.77;68.80;100513.38;105428;1271;70160;-73
2022/05/22 01:00:38;;;;;;;7.30;2.40;;;;;;;15.75;68.29;100508.81;105354;1271;73299;-71
2022/05/22 01:03:27;;;;;;;7.00;2.30;;;;;;;15.76;68.11;100507.83;105363;1271;59166;-71
2022/05/22 01:06:25;;;;;;;11.30;2.20;;;;;;;15.77;67.51;100509.50;105242;1273;60623;-70
2022/05/22 01:08:59;;;;;;;5.90;2.20;;;;;;;15.78;66.76;100512.27;105422;1272;71817;-72
2022/05/22 01:11:33;;;;;;;3.80;2.20;;;;;;;15.75;66.56;100508.13;105473;1271;71045;-69
2022/05/22 01:14:10;;;;;;;6.10;1.80;;;;;;;15.71;66.68;100496.63;105337;1273;68805;-73
2022/05/22 01:16:39;;;;;;;5.20;1.90;;;;;;;15.73;65.82;100497.98;105120;1273;73028;-72
2022/05/22 01:19:16;;;;;;;3.30;2.00;;;;;;;15.77;65.02;100501.33;104922;1273;63700;-70
2022/05/22 01:22:12;;;;;;;4.30;2.00;;;;;;;15.78;64.79;100501.34;105184;1273;59457;-70
2022/05/22 01:24:43;;;;;;;7.10;2.40;;;;;;;15.81;64.10;100496.30;105280;1271;71015;-71
2022/05/22 01:27:17;;;;;;;3.50;1.70;;;;;;;15.85;63.64;100498.88;105248;1271;72339;-71
2022/05/22 01:30:10;;;;;;;5.40;2.10;;;;;;;15.91;63.13;100502.76;105088;1273;71500;-70
2022/05/22 01:32:43;;;;;;;3.50;1.80;;;;;;;15.92;62.47;100499.34;105334;1272;71579;-70
2022/05/22 01:35:16;;;;;;;9.80;2.00;;;;;;;15.92;61.94;100491.40;105347;1273;59154;-70
2022/05/22 01:37:46;;;;;;;5.50;1.70;;;;;;;15.94;61.37;100486.48;105424;1271;60500;-68
2022/05/22 01:40:17;;;;;;;6.40;1.80;;;;;;;15.96;60.70;100485.61;105372;1273;71654;-67
2022/05/22 01:42:49;;;;;;;3.00;1.80;;;;;;;15.96;59.11;100492.10;105348;1273;72275;-68
2022/05/22 01:45:23;;;;;;;7.60;2.20;;;;;;;15.99;59.14;100493.67;105356;1272;68623;-70
2022/05/22 01:47:53;;;;;;;4.20;1.60;;;;;;;16.00;58.46;100494.77;105282;1271;73144;-68
2022/05/22 01:50:30;;;;;;;3.80;1.40;;;;;;;16.02;58.10;100498.88;105287;1271;60911;-69
2022/05/22 01:52:59;;;;;;;3.20;1.30;;;;;;;16.00;56.24;100496.77;105336;1271;60616;-70
2022/05/22 01:55:28;;;;;;;3.70;1.30;;;;;;;16.00;56.87;100499.93;105388;1271;74123;-69
2022/05/22 01:57:59;;;;;;;3.40;1.40;;;;;;;15.98;55.84;100496.06;105276;1272;72212;-69
2022/05/22 02:00:30;;;;;;;1.80;1.40;;;;;;;15.97;56.04;100494.61;105355;1271;70482;-68
2022/05/22 02:03:00;;;;;;;5.30;1.50;;;;;;;15.92;56.13;100480.73;105254;1271;73488;-69
2022/05/22 02:05:34;;;;;;;6.40;1.70;;;;;;;15.91;56.08;100481.62;105148;1271;61624;-68
2022/05/22 02:08:19;;;;;;;4.10;1.60;;;;;;;15.89;56.14;100478.64;105264;1271;61926;-69
2022/05/22 02:11:01;;;;;;;2.90;1.50;;;;;;;15.88;56.04;100476.46;105303;1271;74034;-70
2022/05/22 02:13:44;;;;;;;2.90;1.60;;;;;;;15.87;55.88;100473.40;105247;1273;72774;-67
2022/05/22 02:16:13;;;;;;;3.80;1.70;;;;;;;15.82;56.01;100461.08;105095;1273;69420;-70
2022/05/22 02:18:44;;;;;;;2.50;1.40;;;;;;;15.85;55.43;100464.11;105233;1273;72590;-71
2022/05/22 02:21:12;;;;;;;6.50;1.30;;;;;;;15.85;55.69;100466.98;105240;1271;59931;-70
2022/05/22 02:23:41;;;;;;;4.60;1.50;;;;;;;15.83;55.37;100472.80;105261;1271;60447;-70
2022/05/22 02:26:11;;;;;;;2.90;1.30;;;;;;;15.80;54.93;100465.02;105278;1271;71835;-69
2022/05/22 02:28:41;;;;;;;4.30;1.20;;;;;;;15.76;54.83;100463.23;105208;1273;69667;-71
2022/05/22 02:31:10;;;;;;;5.20;1.50;;;;;;;15.73;54.58;100459.41;105245;1271;69782;-69
2022/05/22 02:33:40;;;;;;;1.40;1.00;;;;;;;15.70;54.41;100457.60;105367;1271;70735;-68
2022/05/22 02:36:13;;;;;;;3.70;1.40;;;;;;;15.65;54.02;100456.29;105038;1273;60944;-71
2022/05/22 02:38:44;;;;;;;6.40;1.40;;;;;;;15.61;55.33;100459.11;105293;1271;59795;-71
2022/05/22 02:41:20;;;;;;;5.50;2.40;;;;;;;15.56;56.16;100457.29;105299;1271;70982;-67
2022/05/22 02:43:56;;;;;;;6.00;2.30;;;;;;;15.49;59.30;100452.93;105237;1271;71524;-68
2022/05/22 02:46:25;;;;;;;4.00;2.20;;;;;;;15.41;62.83;100454.73;105382;1271;71584;-70
2022/05/22 02:48:55;;;;;;;6.90;2.20;;;;;;;15.40;64.48;100452.00;105339;1271;73688;-70
2022/05/22 02:51:37;;;;;;;5.20;2.20;;;;;;;15.30;67.00;100448.89;105299;1271;62832;-70
2022/05/22 02:54:06;;;;;;;3.50;2.30;;;;;;;15.23;68.23;100464.22;105324;1271;59964;-73
2022/05/22 02:56:49;;;;;;;5.00;2.20;;;;;;;15.09;69.61;100468.33;105203;1271;72303;-70
2022/05/22 02:59:35;;;;;;;5.40;2.90;;;;;;;14.96;69.97;100464.65;105164;1271;71843;-70
2022/05/22 03:02:11;;;;;;;5.50;3.10;;;;;;;14.89;70.38;100466.75;104947;1273;70812;-71
2022/05/22 03:04:42;;;;;;;4.60;2.40;;;;;;;14.81;70.24;100466.04;105079;1271;73407;-71
2022/05/22 03:07:15;;;;;;;7.20;2.70;;;;;;;14.81;69.84;100467.81;105003;1273;62183;-74
2022/05/22 03:09:47;;;;;;;6.20;2.90;;;;;;;14.78;70.26;100462.96;105141;1273;59682;-70
2022/05/22 03:12:23;;;;;;;6.10;2.70;;;;;;;14.85;71.85;100464.80;105017;1273;73202;-71
2022/05/22 03:14:57;;;;;;;5.20;2.50;;;;;;;14.94;71.76;100459.77;105063;1273;70335;-70
2022/05/22 03:17:27;;;;;;;6.70;2.90;;;;;;;15.02;70.97;100461.41;105047;1273;69858;-71
2022/05/22 03:19:58;;;;;;;7.30;2.30;;;;;;;15.14;70.66;100461.88;105059;1273;72529;-70
2022/05/22 03:22:28;;;;;;;5.00;2.40;;;;;;;15.26;68.95;100460.77;105057;1273;62975;-70
2022/05/22 03:24:59;;;;;;;4.20;2.60;;;;;;;15.34;68.46;100455.73;105200;1273;60934;-70
2022/05/22 03:27:28;;;;;;;5.20;2.10;;;;;;;15.39;67.71;100451.44;105084;1273;72002;-70
2022/05/22 03:29:57;;;;;;;6.80;1.70;;;;;;;15.42;66.17;100445.68;105160;1273;70950;-71
2022/05/22 03:32:26;;;;;;;5.50;1.90;;;;;;;15.40;63.91;100447.83;105084;1273;69953;-71
2022/05/22 03:34:57;;;;;;;5.20;1.50;;;;;;;15.47;62.79;100450.66;105229;1271;74198;-72
2022/05/22 03:37:26;;;;;;;3.30;1.70;;;;;;;15.50;60.21;100450.48;105121;1271;60078;-71
2022/05/22 03:39:58;;;;;;;4.10;1.70;;;;;;;15.54;60.50;100447.63;105182;1271;60938;-70
2022/05/22 03:42:28;;;;;;;4.60;1.60;;;;;;;15.55;60.62;100447.34;105267;1271;74735;-70
2022/05/22 03:44:56;;;;;;;7.50;1.80;;;;;;;15.56;60.63;100448.34;105062;1271;73119;-69
2022/05/22 03:47:25;;;;;;;7.20;2.90;;;;;;;15.57;62.47;100443.11;105269;1271;71910;-70
2022/05/22 03:50:11;;;;;;;7.50;3.40;;;;;;;15.57;66.53;100439.81;105396;1271;74147;-70
2022/05/22 03:52:44;;;;;;;4.80;2.90;;;;;;;15.47;68.04;100439.36;105496;1273;63939;-70
2022/05/22 03:55:27;;;;;;;4.60;3.00;;;;;;;15.37;69.59;100442.66;105397;1271;59047;-67
2022/05/22 03:57:58;;;;;;;4.30;3.30;;;;;;;15.26;70.42;100449.38;105325;1273;72944;-70
2022/05/22 04:00:27;;;;;;;5.80;3.00;;;;;;;15.13;70.83;100447.29;105114;1273;71469;-70
2022/05/22 04:02:57;;;;;;;7.50;3.10;;;;;;;15.01;72.45;100447.65;105219;1273;69669;-70
2022/05/22 04:05:27;;;;;;;8.30;3.40;;;;;;;15.10;70.98;100448.05;105190;1273;72348;-72
2022/05/22 04:07:57;;;;;;;5.90;3.20;;;;;;;15.22;71.42;100446.91;105321;1272;62312;-69
2022/05/22 04:10:35;;;;;;;9.00;3.50;;;;;;;15.34;70.62;100443.06;105450;1273;61964;-70
2022/05/22 04:13:05;;;;;;;9.00;3.60;;;;;;;15.41;70.68;100435.08;105406;1274;72346;-71
2022/05/22 04:15:34;;;;;;;7.90;2.80;;;;;;;15.52;70.55;100441.48;105331;1271;71620;-71
2022/05/22 04:18:04;;;;;;;8.90;2.80;;;;;;;15.67;67.97;100441.49;105320;1273;67791;-70
2022/05/22 04:20:33;;;;;;;7.00;3.00;;;;;;;15.81;67.55;100444.90;105429;1273;73818;-71
2022/05/22 04:26:39;;;;;;;6.50;2.70;;;;;;;16.05;65.87;100441.27;105391;1271;59695;-70
2022/05/22 04:29:12;;;;;;;5.10;3.00;;;;;;;16.05;65.21;100440.09;105083;1271;72461;-71
2022/05/22 04:31:42;;;;;;;7.10;3.00;;;;;;;16.09;65.36;100439.79;105168;1274;71830;-69
2022/05/22 04:34:24;;;;;;;7.00;2.70;;;;;;;16.14;65.81;100440.02;105216;1272;70574;-69
2022/05/22 04:37:05;;;;;;;5.10;2.50;;;;;;;16.24;64.06;100440.08;105249;1271;74322;-70
2022/05/22 04:39:41;;;;;;;5.40;2.50;;;;;;;16.30;63.46;100442.47;105229;1273;61577;-72
2022/05/22 04:42:13;;;;;;;5.90;2.60;;;;;;;16.32;62.70;100439.66;105367;1273;60924;-72
2022/05/22 04:44:43;;;;;;;4.00;2.50;;;;;;;16.31;62.42;100437.27;105219;1271;72073;-73
2022/05/22 04:47:29;;;;;;;7.30;2.30;;;;;;;16.34;62.18;100438.68;105176;1273;72060;-71
2022/05/22 04:50:53;;;;;;;4.10;2.50;;;;;;;16.41;62.15;100437.09;105111;1273;68886;-72
2022/05/22 04:53:41;;;;;;;9.10;2.70;;;;;;;16.53;62.02;100428.17;105187;1271;73752;-71
2022/05/22 04:56:56;;;;;;;4.90;2.50;;;;;;;16.63;61.60;100425.57;105137;1271;62444;-70
2022/05/22 04:59:25;;;;;;;4.10;2.40;;;;;;;16.70;61.51;100425.91;105235;1271;59395;-70
2022/05/22 05:01:54;;;;;;;4.50;2.70;;;;;;;16.78;61.09;100424.58;105240;1271;70981;-70
2022/05/22 05:04:32;;;;;;;6.40;2.70;;;;;;;16.85;60.90;100428.45;105227;1271;69807;-71
2022/05/22 05:07:09;;;;;;;8.00;2.60;;;;;;;16.91;60.64;100433.98;104994;1273;68382;-68
2022/05/22 05:09:49;;;;;;;5.80;2.60;;;;;;;16.97;60.46;100431.77;105067;1272;71657;-70
2022/05/22 05:12:38;;;;;;;7.50;2.70;;;;;;;17.05;60.35;100433.39;105201;1271;61455;-75
2022/05/22 05:15:21;;;;;;;5.20;2.10;;;;;;;17.14;60.11;100433.11;105292;1271;61244;-74
2022/05/22 05:17:56;;;;;;;4.60;2.40;;;;;;;17.26;59.47;100431.77;105169;1271;72616;-71
2022/05/22 05:20:26;;;;;;;4.70;2.10;;;;;;;17.46;58.30;100432.63;105301;1271;71634;-71
2022/05/22 05:23:04;;;;;;;7.80;2.60;;;;;;;17.54;58.02;100430.51;105199;1271;70219;-71
2022/05/22 05:26:32;;;;;;;7.00;2.30;;;;;;;17.67;56.48;100431.45;105258;1271;71885;-72
2022/05/22 05:29:04;;;;;;;;;;;;;;;17.65;56.35;100420.87;105423;1271;59820;-73
2022/05/22 05:31:39;;;;;;;14.60;2.40;;;;;;;17.62;56.26;100420.91;105221;1272;59148;-72
2022/05/22 05:34:10;;;;;;;6.20;2.10;;;;;;;17.71;56.43;100427.14;105233;1271;73766;-72
2022/05/22 05:36:54;;;;;;;10.40;4.80;;;;;;;17.81;56.24;100420.09;105221;1273;72404;-72
2022/05/22 05:39:35;;;;;;;7.10;2.30;;;;;;;17.90;55.75;100411.34;105170;1270;71455;-74
2022/05/22 05:42:58;;;;;;;5.60;1.60;;;;;;;18.09;53.23;100412.89;105279;1273;75386;-73
2022/05/22 05:45:27;;;;;;;2.70;1.80;;;;;;;18.03;51.17;100407.13;105667;1272;61240;-77
2022/05/22 05:48:03;;;;;;;3.70;1.50;;;;;;;17.96;49.84;100407.39;105643;1271;61227;-73
2022/05/22 05:50:37;;;;;;;5.10;1.70;;;;;;;17.89;49.16;100407.11;105636;1271;71972;-74
2022/05/22 05:53:24;;;;;;;5.90;2.10;;;;;;;17.86;48.67;100412.19;105698;1271;72028;-74
2022/05/22 05:55:56;;;;;;;3.50;1.80;;;;;;;17.88;47.34;100412.48;105716;1271;70666;-73
2022/05/22 05:58:43;;;;;;;3.70;1.60;;;;;;;17.88;46.69;100412.80;105612;1271;74407;-72
2022/05/22 06:01:35;;;;;;;5.40;1.50;;;;;;;17.82;46.68;100418.02;105249;1273;60311;-73
2022/05/22 06:04:05;;;;;;;4.30;1.60;;;;;;;17.73;47.03;100410.75;105378;1273;59061;-73
2022/05/22 06:06:35;;;;;;;4.40;1.60;;;;;;;17.83;46.97;100420.08;105039;1274;73823;-75
2022/05/22 06:09:05;;;;;;;10.50;1.60;;;;;;;17.92;46.36;100409.69;105164;1273;73226;-73
2022/05/22 06:11:53;;;;;;;4.00;1.30;;;;;;;17.95;45.34;100405.71;105104;1273;70865;-75
2022/05/22 06:15:03;;;;;;;3.40;1.50;;;;;;;18.06;45.29;100400.10;104991;1274;72808;-72
2022/05/22 06:17:37;;;;;;;3.70;1.60;;;;;;;18.14;45.09;100403.09;105005;1273;61487;-72
2022/05/22 06:20:10;;;;;;;3.90;1.00;;;;;;;18.11;44.85;100396.89;105082;1276;59259;-72
2022/05/22 06:22:46;;;;;;;2.20;0.80;;;;;;;18.21;42.92;100403.05;105443;1273;72143;-72
2022/05/22 06:25:34;;;;;;;1.40;0.70;;;;;;;18.19;41.67;100393.60;105335;1273;70795;-73
2022/05/22 06:28:49;;;;;;;4.30;1.10;;;;;;;18.19;41.37;100393.77;105155;1274;70210;-73
2022/05/22 06:32:13;;;;;;;3.00;1.00;;;;;;;18.17;41.32;100392.42;105057;1273;75476;-74
2022/05/22 06:35:14;;;;;;;2.80;1.10;;;;;;;18.21;41.86;100390.92;105556;1273;61297;-76
2022/05/22 06:38:03;;;;;;;2.30;1.10;;;;;;;18.29;41.93;100396.90;105883;1273;61013;-80
2022/05/22 06:41:11;;;;;;;4.80;1.30;;;;;;;18.43;41.79;100395.67;105368;1274;73899;-71
2022/05/22 06:43:49;;;;;;;4.10;1.10;;;;;;;18.55;41.57;100391.56;105343;1273;60982;-72
2022/05/22 06:46:32;;;;;;;3.30;1.00;;;;;;;18.59;41.52;100394.47;105238;1275;70283;-73
2022/05/22 06:49:56;;;;;;;6.10;1.00;;;;;;;18.65;40.99;100392.25;105180;1273;74405;-73
2022/05/22 06:52:38;;;;;;;2.70;1.20;;;;;;;18.70;41.45;100388.77;105266;1274;59727;-71
2022/05/22 06:55:29;;;;;;;1.20;0.90;;;;;;;18.83;41.64;100377.75;105270;1273;59077;-72
2022/05/22 06:58:21;;;;;;;1.40;0.90;;;;;;;19.06;41.57;100366.52;105267;1273;73574;-72
2022/05/22 07:01:29;;;;;;;4.70;0.90;;;;;;;19.18;40.97;100356.74;105288;1273;73385;-72
2022/05/22 07:04:48;;;;;;;2.90;1.00;;;;;;;19.24;40.43;100363.13;105027;1274;60846;-72
2022/05/22 07:07:35;;;;;;;4.80;1.10;;;;;;;19.19;40.27;100362.80;105440;1273;65016;-76
2022/05/22 07:13:44;;;;;;;1.60;0.80;;;;;;;19.34;39.28;100356.78;105448;1273;60494;-73
2022/05/22 07:16:31;;;;;;;2.40;0.90;;;;;;;19.50;39.98;100350.77;105474;1271;62672;-75
2022/05/22 07:19:11;;;;;;;1.60;0.80;;;;;;;19.65;39.75;100356.13;105467;1273;61767;-77
2022/05/22 07:21:53;;;;;;;1.40;0.90;;;;;;;19.60;39.52;100350.50;105531;1272;59248;-73
2022/05/22 07:25:15;;;;;;;3.80;1.00;;;;;;;19.60;39.17;100351.23;105644;1270;63432;-76
2022/05/22 07:28:43;;;;;;;1.10;0.80;;;;;;;19.63;39.08;100348.64;105388;1276;61320;-76
2022/05/22 07:31:26;;;;;;;3.60;1.20;;;;;;;19.70;39.12;100340.85;105353;1276;62273;-74
2022/05/22 07:34:48;;;;;;;1.70;0.90;;;;;;;19.77;38.79;100350.95;105439;1270;73999;-75
2022/05/22 07:37:41;;;;;;;1.90;1.10;;;;;;;19.86;38.90;100345.99;105528;1271;71534;-73
2022/05/22 07:40:30;;;;;;;1.00;0.80;;;;;;;19.92;38.64;100342.74;105532;1271;70809;-76
2022/05/22 07:43:16;;;;;;;4.20;0.80;;;;;;;19.78;38.88;100337.67;105551;1273;62569;-74
2022/05/22 07:46:32;;;;;;;1.50;0.80;;;;;;;19.58;39.17;100347.21;105463;1273;59185;-72
2022/05/22 07:52:49;;;;;;;2.20;0.60;;;;;;;19.30;37.88;100351.57;104689;1271;853220;-73
2022/05/22 07:55:33;;;;;;;3.10;0.80;;;;;;;19.33;37.57;100352.20;105904;1271;72392;-74
2022/05/22 07:58:42;;;;;;;1.30;0.60;;;;;;;19.18;37.44;100353.39;105373;1272;71291;-74
2022/05/22 08:01:32;;;;;;;2.10;1.00;;;;;;;19.17;37.64;100359.85;105478;1271;74272;-74
2022/05/22 08:04:06;;;;;;;4.20;1.40;;;;;;;19.11;38.22;100344.83;105407;1271;59188;-75
2022/05/22 08:07:12;;;;;;;1.20;0.60;;;;;;;19.41;37.63;100337.39;105336;1271;58659;-75
2022/05/22 08:10:06;;;;;;;;;;;;;;;19.50;37.32;100333.85;105397;1271;62287;-73
2022/05/22 08:12:48;;;;;;;1.20;0.70;;;;;;;19.37;37.65;100338.58;105304;1271;72102;-73
2022/05/22 08:15:26;;;;;;;2.50;0.70;;;;;;;19.03;38.18;100333.84;105407;1271;72022;-74
2022/05/22 08:18:00;;;;;;;0.80;0.60;;;;;;;19.08;38.49;100339.80;105396;1271;73137;-74
2022/05/22 08:20:33;;;;;;;5.50;1.30;;;;;;;19.10;37.73;100334.73;105471;1271;61489;-75
2022/05/22 08:23:20;;;;;;;4.80;0.80;;;;;;;19.03;38.50;100330.84;105189;1273;58976;-75
2022/05/22 08:26:01;;;;;;;3.70;0.80;;;;;;;18.90;38.45;100325.90;105346;1271;73310;-73
2022/05/22 08:28:30;;;;;;;2.10;0.80;;;;;;;18.86;38.61;100335.52;105208;1271;73196;-72
2022/05/22 08:30:59;;;;;;;1.80;0.80;;;;;;;18.93;38.81;100330.89;105365;1271;59698;-75
2022/05/22 08:33:28;;;;;;;1.30;0.80;;;;;;;19.07;38.85;100320.41;105287;1271;72794;-73
2022/05/22 08:35:57;;;;;;;0.80;0.70;;;;;;;19.30;38.00;100320.23;105270;1271;59789;-74
2022/05/22 08:38:26;;;;;;;1.60;0.80;;;;;;;19.53;38.14;100311.27;105379;1271;59097;-73
2022/05/22 08:41:11;;;;;;;1.20;0.90;;;;;;;19.71;37.60;100311.95;105449;1271;73147;-72
2022/05/22 08:44:09;;;;;;;2.20;1.00;;;;;;;19.87;37.48;100308.73;105405;1271;60734;-73
2022/05/22 08:47:18;;;;;;;5.40;0.90;;;;;;;19.89;37.06;100301.52;105553;1271;70579;-74
2022/05/22 08:50:12;;;;;;;2.80;0.70;;;;;;;19.93;36.94;100294.15;105366;1271;63693;-74
2022/05/22 08:53:21;;;;;;;3.20;0.90;;;;;;;20.08;37.43;100286.41;105449;1272;58728;-74
2022/05/22 08:59:00;;;;;;;1.20;0.60;;;;;;;20.12;36.06;100284.11;105271;1271;73759;-74
2022/05/22 09:01:32;;;;;;;1.30;0.80;;;;;;;20.06;36.37;100280.96;105354;1271;72215;-74
2022/05/22 09:04:20;;;;;;;;;;;;;;;20.05;36.61;100271.93;105509;1271;71063;-74
2022/05/22 09:07:14;;;;;;;0.90;0.70;;;;;;;20.17;36.93;100268.38;105344;1271;74724;-76
2022/05/22 09:09:48;;;;;;;3.80;1.00;;;;;;;20.23;36.49;100251.78;105321;1271;59171;-74
2022/05/22 09:12:54;;;;;;;2.40;0.80;;;;;;;20.22;36.73;100259.96;105455;1271;59022;-75
2022/05/22 09:15:57;;;;;;;1.70;0.90;;;;;;;20.12;36.51;100248.73;105192;1273;71862;-74
2022/05/22 09:18:56;;;;;;;2.50;0.80;;;;;;;20.02;37.29;100235.14;105479;1273;62025;-74
2022/05/22 09:21:42;;;;;;;1.90;0.90;;;;;;;20.17;36.58;100249.13;105292;1271;59300;-76
2022/05/22 09:24:38;;;;;;;1.50;0.90;;;;;;;20.21;36.21;100242.57;105328;1271;73217;-74
2022/05/22 09:27:21;;;;;;;1.70;0.70;;;;;;;20.21;35.70;100254.73;105520;1271;57637;-78
2022/05/22 09:30:00;;;;;;;1.60;1.00;;;;;;;20.14;35.36;100258.49;105624;1271;58897;-75
2022/05/22 09:33:09;;;;;;;2.10;1.10;;;;;;;20.14;35.80;100245.73;105534;1271;63109;-77
2022/05/22 09:35:50;;;;;;;1.50;1.00;;;;;;;20.22;36.50;100248.17;105593;1271;73231;-75
2022/05/22 09:38:45;;;;;;;2.40;1.00;;;;;;;20.32;35.05;100257.88;106115;1271;60496;-83
2022/05/22 09:41:48;;;;;;;1.60;1.10;;;;;;;20.38;34.89;100239.96;105451;1273;72389;-77
2022/05/22 09:44:40;;;;;;;2.90;1.00;;;;;;;20.45;35.57;100241.52;105559;1271;59098;-77
2022/05/22 09:48:01;;;;;;;2.70;1.00;;;;;;;20.78;36.25;100230.67;105614;1271;60293;-77
2022/05/22 09:51:25;;;;;;;0.70;0.70;;;;;;;21.06;34.58;100233.63;105606;1271;73414;-77
2022/05/22 09:54:25;;;;;;;2.90;1.10;;;;;;;21.24;34.52;100235.61;105359;1271;62527;-77
2022/05/22 09:57:57;;;;;;;2.10;0.80;;;;;;;21.44;33.64;100243.35;105392;1271;72753;-75
2022/05/22 10:01:05;;;;;;;1.20;0.70;;;;;;;21.38;33.56;100236.84;105562;1271;73659;-73
2022/05/22 10:04:09;;;;;;;1.40;0.80;;;;;;;21.39;33.18;100238.85;105640;1271;61658;-74
2022/05/22 10:07:00;;;;;;;2.50;1.00;;;;;;;21.09;33.84;100241.23;105495;1271;61430;-74
2022/05/22 10:10:19;;;;;;;2.70;0.90;;;;;;;21.15;33.85;100239.20;105769;1271;73855;-74
2022/05/22 10:13:25;;;;;;;2.80;1.00;;;;;;;21.22;34.32;100243.35;105652;1271;72769;-77
2022/05/22 10:16:30;;;;;;;3.60;1.30;;;;;;;21.29;34.75;100239.45;105477;1271;71325;-74
2022/05/22 10:19:25;;;;;;;1.90;0.90;;;;;;;21.67;34.22;100243.19;105671;1271;74348;-74
2022/05/22 10:22:43;;;;;;;2.30;0.90;;;;;;;21.87;33.66;100237.79;105343;1272;62731;-74
2022/05/22 10:26:17;;;;;;;2.90;1.30;;;;;;;21.23;34.40;100233.59;105465;1271;59708;-74
2022/05/22 10:29:19;;;;;;;2.50;1.20;;;;;;;21.28;34.05;100225.88;105270;1271;72728;-75
2022/05/22 10:32:13;;;;;;;2.60;1.10;;;;;;;21.55;33.60;100234.61;105608;1271;72922;-73
2022/05/22 10:35:00;;;;;;;1.90;0.90;;;;;;;21.34;33.97;100216.70;105614;1271;70631;-73
2022/05/22 10:37:43;;;;;;;2.60;1.00;;;;;;;21.78;33.44;100223.83;105717;1271;72537;-77
2022/05/22 10:40:24;;;;;;;3.60;1.20;;;;;;;22.11;32.36;100219.44;105665;1270;58994;-77
2022/05/22 10:42:56;;;;;;;2.90;0.90;;;;;;;22.15;32.36;100209.55;105769;1271;60561;-72
2022/05/22 10:45:36;;;;;;;3.20;0.90;;;;;;;22.55;31.73;100207.70;105830;1271;62201;-76
2022/05/22 10:48:24;;;;;;;1.80;0.90;;;;;;;22.70;31.61;100215.80;105878;1271;61777;-76
2022/05/22 10:51:05;;;;;;;1.40;0.90;;;;;;;22.73;31.21;100215.48;105670;1271;59187;-73
2022/05/22 10:54:00;;;;;;;3.10;1.40;;;;;;;23.08;30.35;100212.50;105720;1271;72243;-73
2022/05/22 10:56:33;;;;;;;2.50;1.40;;;;;;;23.04;30.39;100219.02;105531;1271;58937;-73
2022/05/22 10:59:17;;;;;;;2.20;1.30;;;;;;;22.59;30.82;100211.70;105523;1271;59089;-73
2022/05/22 11:02:03;;;;;;;2.30;1.10;;;;;;;22.77;30.96;100201.94;105497;1271;62927;-74
2022/05/22 11:04:44;;;;;;;3.10;1.60;;;;;;;22.60;31.59;100216.59;105502;1271;73317;-74
2022/05/22 11:07:14;;;;;;;3.70;2.50;;;;;;;22.74;31.20;100208.40;105482;1271;71112;-73
2022/05/22 11:09:51;;;;;;;3.10;1.00;;;;;;;23.00;30.67;100206.20;105554;1271;63967;-75
2022/05/22 11:12:27;;;;;;;3.30;1.50;;;;;;;23.31;29.99;100208.09;105598;1271;57656;-72
2022/05/22 11:15:08;;;;;;;2.10;1.00;;;;;;;23.26;30.15;100216.45;105666;1271;59089;-72
2022/05/22 11:17:37;;;;;;;0.80;0.60;;;;;;;23.59;29.23;100209.47;105639;1271;62273;-72
2022/05/22 11:20:17;;;;;;;2.80;0.80;;;;;;;23.67;28.97;100203.77;105510;1271;61657;-71
2022/05/22 11:23:19;;;;;;;1.90;0.90;;;;;;;23.07;29.68;100199.38;105404;1271;60437;-72
2022/05/22 11:26:23;;;;;;;1.70;0.90;;;;;;;22.75;30.18;100204.21;105097;1273;72609;-72
2022/05/22 11:28:52;;;;;;;1.10;0.70;;;;;;;22.29;30.69;100202.03;105105;1271;58488;-72
2022/05/22 11:31:43;;;;;;;4.40;1.00;;;;;;;21.87;31.28;100202.45;105484;1271;61400;-74
2022/05/22 11:34:37;;;;;;;2.80;0.90;;;;;;;21.72;31.58;100203.71;105562;1271;63577;-72
2022/05/22 11:37:37;;;;;;;5.10;0.90;;;;;;;21.83;31.28;100208.15;105252;1273;60855;-73
2022/05/22 11:40:47;;;;;;;2.30;0.90;;;;;;;21.58;31.39;100216.14;105375;1271;68737;-76
2022/05/22 11:43:56;;;;;;;2.50;0.80;;;;;;;21.20;32.19;100205.70;105570;1271;75130;-74
2022/05/22 11:46:49;;;;;;;2.20;0.90;;;;;;;21.64;31.69;100204.02;105317;1271;59035;-76
2022/05/22 11:49:29;;;;;;;1.40;0.80;;;;;;;21.49;31.82;100205.37;105159;1271;61796;-73
2022/05/22 11:55:29;;;;;;;3.90;1.40;;;;;;;21.75;31.23;100181.94;105691;1271;61878;-74
2022/05/22 11:58:31;;;;;;;1.40;0.80;;;;;;;21.98;30.90;100185.98;105311;1273;61207;-78
2022/05/22 12:01:23;;;;;;;0.80;0.70;;;;;;;22.10;30.61;100186.59;105598;1271;63788;-75
2022/05/22 12:04:09;;;;;;;2.60;0.80;;;;;;;22.74;30.22;100181.03;105656;1271;60575;-75
2022/05/22 12:06:59;;;;;;;2.00;0.90;;;;;;;23.11;29.74;100178.04;105933;1271;59747;-74
2022/05/22 12:10:08;;;;;;;3.60;1.00;;;;;;;23.10;29.18;100202.35;105667;1273;72461;-79
2022/05/22 12:12:56;;;;;;;1.30;0.70;;;;;;;23.67;27.83;100173.66;106048;1271;73005;-77
2022/05/22 12:15:58;;;;;;;3.90;0.90;;;;;;;23.82;27.54;100179.80;105837;1271;62116;-77
2022/05/22 12:18:57;;;;;;;2.60;1.00;;;;;;;23.20;27.96;100177.98;105909;1273;73615;-78
2022/05/22 12:21:59;;;;;;;3.60;1.10;;;;;;;23.04;28.32;100173.92;105395;1271;61248;-76
2022/05/22 12:24:39;;;;;;;3.10;0.90;;;;;;;22.53;28.86;100173.13;105726;1273;59060;-75
2022/05/22 12:27:23;;;;;;;2.60;0.80;;;;;;;22.76;28.86;100171.73;106040;1271;63698;-76
2022/05/22 12:30:39;;;;;;;1.50;0.70;;;;;;;23.09;28.52;100183.14;107404;1264;60979;-79
2022/05/22 12:33:12;;;;;;;2.30;1.00;;;;;;;23.88;27.95;100183.45;106317;1273;59187;-79
2022/05/22 12:35:45;;;;;;;2.60;0.90;;;;;;;24.33;27.30;100177.27;107755;1262;62594;-79
2022/05/22 12:38:15;;;;;;;1.60;0.80;;;;;;;24.25;27.11;100184.22;107580;1265;60524;-79
2022/05/22 12:40:53;;;;;;;2.40;0.90;;;;;;;23.84;26.97;100193.27;107473;1264;59533;-80
2022/05/22 12:43:25;;;;;;;2.90;1.00;;;;;;;23.78;27.49;100188.23;106829;1271;73142;-78
2022/05/22 12:45:59;;;;;;;1.30;0.70;;;;;;;23.94;27.86;100187.77;105900;1272;73138;-78
2022/05/22 12:48:34;;;;;;;2.00;1.00;;;;;;;24.26;27.59;100197.98;105752;1271;61426;-78